Humboldt Bay — A8OL4 — position and weather

sailwx.info

Track history (hours):
 
Tides and Currents Weather Stations Pressure Air Temp Water Temp Dewpoint Dewpoint Depression Visibility Wind Speed Wind Dir Waves Ship Positions

Humboldt Bay

Last reported at 2016-Sep-19 23:27 UTC. Time now 2016-Sep-25 03:44 UTC.
Position N 09°48' W 079°29'.

Length 147 m; draft 7.4 m.

Type: Cargo ship. MMSI: 636013649.

Date/timePositionNaut miles runAvg speedWind from/ knotsBaromVisibWave heightAir tempDewpointWater temp
2016-Sep-19 23:27N 09°48' W 079°29'36 9.2
2016-Sep-19 19:33N 09°23' W 079°55'0 0.0
2016-Sep-19 18:33N 09°23' W 079°55'0 0.0
2016-Sep-19 16:30N 09°23' W 079°55'0 0.0
2016-Sep-19 14:33N 09°23' W 079°55'0 0.0
2016-Sep-19 13:33N 09°23' W 079°55'0 0.0
2016-Sep-19 12:30N 09°23' W 079°55'0 0.1
2016-Sep-19 11:32N 09°23' W 079°55'0 0.2
2016-Sep-19 09:33N 09°22' W 079°55'6 3.0
2016-Sep-19 07:33N 09°16' W 079°55'1 1.0
2016-Sep-19 06:33N 09°15' W 079°55'23 7.8
2016-Sep-19 03:34N 09°01' W 079°37'2 1.6
2016-Sep-19 02:32N 08°60' W 079°36'4 2.2
2016-Sep-19 00:32N 08°56' W 079°33'4 0.7
2016-Sep-18 19:14N 08°54' W 079°30'27 6.8
2016-Sep-18 15:14N 08°28' W 079°22'  
Track history (hours):
 
Tides and Currents Weather Stations Pressure Air Temp Water Temp Dewpoint Dewpoint Depression Visibility Wind Speed Wind Dir Waves Ship Positions

Humboldt Bay

Last reported at 2016-Sep-19 23:27 UTC. Time now 2016-Sep-25 03:44 UTC.
Position N 09°48' W 079°29'.

Length 147 m; draft 7.4 m.

Type: Cargo ship. MMSI: 636013649.

Date/timePositionNaut miles runAvg speedWind from/ knotsBaromVisibWave heightAir tempDewpointWater temp
2016-Sep-19 23:27N 09°48' W 079°29'36 9.2
2016-Sep-19 19:33N 09°23' W 079°55'0 0.0
2016-Sep-19 18:33N 09°23' W 079°55'0 0.0
2016-Sep-19 16:30N 09°23' W 079°55'0 0.0
2016-Sep-19 14:33N 09°23' W 079°55'0 0.0
2016-Sep-19 13:33N 09°23' W 079°55'0 0.0
2016-Sep-19 12:30N 09°23' W 079°55'0 0.1
2016-Sep-19 11:32N 09°23' W 079°55'0 0.2
2016-Sep-19 09:33N 09°22' W 079°55'6 3.0
2016-Sep-19 07:33N 09°16' W 079°55'1 1.0
2016-Sep-19 06:33N 09°15' W 079°55'23 7.8
2016-Sep-19 03:34N 09°01' W 079°37'2 1.6
2016-Sep-19 02:32N 08°60' W 079°36'4 2.2
2016-Sep-19 00:32N 08°56' W 079°33'4 0.7
2016-Sep-18 19:14N 08°54' W 079°30'27 6.8
2016-Sep-18 15:14N 08°28' W 079°22'  

Dump ship's entire track history